Search for airport 
image banner adimage banner adimage banner ad
image banner ad

KOAR - Marina Muni

Located in Marina, United States

ICAO - OAR, IATA - OAR

Data provided by Airmate  

General information

Coordinates: N36°40'54" W121°45'42"
Elevation is 137 feet MSL.
Magnetic variation is 15° East
View others Airports in California

Operational data

Special qualification required
Current time UTC:
Current local time:
Weather
METAR: KOAR 240835Z AUTO 00000KT 10SM CLR 14/12 A3002 RMK AO2
View NOTAMs / SUP AIP / TFR affecting this airport [VIEW]
Communications frequencies: [VIEW]

Runways:

RWY identifierQFULength (ft)Width (ft)SurfaceLDA (ft)
11122°348375ASPH
29302°348375ASPH

Airport contact information

Address: Marina United States

Satellite view of KOAR